sensor_id;sensor_type;location;lat;lon;timestamp;noise_LAeq;noise_LA_min;noise_LA_max;noise_LA01;noise_LA95
63692;Laerm;49838;51.798;10.954;2023-06-22T00:01:26;33.13;28.61;42.80;;
63692;Laerm;49838;51.798;10.954;2023-06-22T00:03:53;40.09;31.15;51.21;;
63692;Laerm;49838;51.798;10.954;2023-06-22T00:06:20;46.43;33.27;63.47;;
63692;Laerm;49838;51.798;10.954;2023-06-22T00:08:48;40.51;32.11;52.75;;
63692;Laerm;49838;51.798;10.954;2023-06-22T00:11:15;39.66;30.81;50.27;;
63692;Laerm;49838;51.798;10.954;2023-06-22T00:13:44;38.71;30.41;54.60;;
63692;Laerm;49838;51.798;10.954;2023-06-22T00:16:11;37.11;29.66;47.00;;
63692;Laerm;49838;51.798;10.954;2023-06-22T00:18:38;37.08;29.74;47.91;;
63692;Laerm;49838;51.798;10.954;2023-06-22T00:21:06;48.50;28.90;67.08;;
63692;Laerm;49838;51.798;10.954;2023-06-22T00:23:34;40.27;28.90;54.70;;
63692;Laerm;49838;51.798;10.954;2023-06-22T00:26:01;41.85;34.40;51.58;;
63692;Laerm;49838;51.798;10.954;2023-06-22T00:28:29;54.22;29.25;73.42;;
63692;Laerm;49838;51.798;10.954;2023-06-22T00:30:57;40.02;29.95;55.73;;
63692;Laerm;49838;51.798;10.954;2023-06-22T00:33:26;37.81;29.49;45.91;;
63692;Laerm;49838;51.798;10.954;2023-06-22T00:35:54;39.71;31.57;48.81;;
63692;Laerm;49838;51.798;10.954;2023-06-22T00:38:21;52.47;29.87;72.88;;
63692;Laerm;49838;51.798;10.954;2023-06-22T00:40:48;38.66;31.32;49.11;;
63692;Laerm;49838;51.798;10.954;2023-06-22T00:43:16;35.20;29.73;43.25;;
63692;Laerm;49838;51.798;10.954;2023-06-22T00:45:43;35.15;30.00;48.86;;
63692;Laerm;49838;51.798;10.954;2023-06-22T00:48:12;31.96;27.74;42.58;;
63692;Laerm;49838;51.798;10.954;2023-06-22T00:50:40;49.83;28.01;69.49;;
63692;Laerm;49838;51.798;10.954;2023-06-22T00:53:08;35.91;30.13;48.47;;
63692;Laerm;49838;51.798;10.954;2023-06-22T00:55:37;41.08;33.49;48.85;;
63692;Laerm;49838;51.798;10.954;2023-06-22T00:58:06;39.19;31.03;46.83;;
63692;Laerm;49838;51.798;10.954;2023-06-22T01:00:36;35.55;28.87;44.73;;
63692;Laerm;49838;51.798;10.954;2023-06-22T01:03:06;35.97;28.45;44.51;;
63692;Laerm;49838;51.798;10.954;2023-06-22T01:05:39;34.43;28.09;44.59;;
63692;Laerm;49838;51.798;10.954;2023-06-22T01:08:22;31.95;27.47;40.91;;
63692;Laerm;49838;51.798;10.954;2023-06-22T01:10:54;31.68;27.46;44.12;;
63692;Laerm;49838;51.798;10.954;2023-06-22T01:13:28;32.16;28.14;43.17;;
63692;Laerm;49838;51.798;10.954;2023-06-22T01:16:02;40.27;29.49;53.71;;
63692;Laerm;49838;51.798;10.954;2023-06-22T01:18:31;36.41;29.16;48.40;;
63692;Laerm;49838;51.798;10.954;2023-06-22T01:21:00;35.91;29.00;44.65;;
63692;Laerm;49838;51.798;10.954;2023-06-22T01:23:35;34.33;28.01;46.06;;
63692;Laerm;49838;51.798;10.954;2023-06-22T01:26:08;42.82;30.33;53.26;;
63692;Laerm;49838;51.798;10.954;2023-06-22T01:28:45;39.69;29.58;54.04;;
63692;Laerm;49838;51.798;10.954;2023-06-22T01:31:15;42.57;30.70;52.92;;
63692;Laerm;49838;51.798;10.954;2023-06-22T01:33:45;42.28;29.89;57.92;;
63692;Laerm;49838;51.798;10.954;2023-06-22T01:36:14;46.76;30.79;64.56;;
63692;Laerm;49838;51.798;10.954;2023-06-22T01:38:42;49.99;32.65;67.20;;
63692;Laerm;49838;51.798;10.954;2023-06-22T01:41:10;49.83;32.57;66.09;;
63692;Laerm;49838;51.798;10.954;2023-06-22T01:43:38;52.40;31.23;66.81;;
63692;Laerm;49838;51.798;10.954;2023-06-22T01:46:07;51.96;35.67;67.74;;
63692;Laerm;49838;51.798;10.954;2023-06-22T01:48:35;52.85;32.86;68.58;;
63692;Laerm;49838;51.798;10.954;2023-06-22T01:51:03;58.03;33.61;75.45;;
63692;Laerm;49838;51.798;10.954;2023-06-22T01:53:30;57.67;36.40;77.98;;
63692;Laerm;49838;51.798;10.954;2023-06-22T01:55:57;57.26;34.19;73.90;;
63692;Laerm;49838;51.798;10.954;2023-06-22T01:58:26;59.89;35.89;78.21;;
63692;Laerm;49838;51.798;10.954;2023-06-22T02:00:57;59.03;37.65;78.65;;
63692;Laerm;49838;51.798;10.954;2023-06-22T02:03:30;58.04;34.28;77.25;;
63692;Laerm;49838;51.798;10.954;2023-06-22T02:06:03;59.47;36.62;77.48;;
63692;Laerm;49838;51.798;10.954;2023-06-22T02:08:40;55.26;37.22;74.84;;
63692;Laerm;49838;51.798;10.954;2023-06-22T02:11:09;54.02;38.11;72.52;;
63692;Laerm;49838;51.798;10.954;2023-06-22T02:13:37;49.74;37.58;67.33;;
63692;Laerm;49838;51.798;10.954;2023-06-22T02:16:09;44.83;36.86;56.61;;
63692;Laerm;49838;51.798;10.954;2023-06-22T02:18:38;46.91;36.78;63.06;;
63692;Laerm;49838;51.798;10.954;2023-06-22T02:21:06;56.64;36.25;75.20;;
63692;Laerm;49838;51.798;10.954;2023-06-22T02:23:33;48.52;38.76;59.46;;
63692;Laerm;49838;51.798;10.954;2023-06-22T02:26:02;48.78;36.77;64.69;;
63692;Laerm;49838;51.798;10.954;2023-06-22T02:28:29;50.69;39.81;66.44;;
63692;Laerm;49838;51.798;10.954;2023-06-22T02:30:56;48.63;38.34;60.88;;
63692;Laerm;49838;51.798;10.954;2023-06-22T02:33:24;47.60;37.67;57.45;;
63692;Laerm;49838;51.798;10.954;2023-06-22T02:35:52;49.77;40.89;58.94;;
63692;Laerm;49838;51.798;10.954;2023-06-22T02:38:20;45.67;38.60;53.61;;
63692;Laerm;49838;51.798;10.954;2023-06-22T02:40:47;48.58;41.17;60.28;;
63692;Laerm;49838;51.798;10.954;2023-06-22T02:43:14;49.17;37.72;64.57;;
63692;Laerm;49838;51.798;10.954;2023-06-22T02:45:42;45.75;37.31;58.13;;
63692;Laerm;49838;51.798;10.954;2023-06-22T02:48:09;47.55;40.64;54.67;;
63692;Laerm;49838;51.798;10.954;2023-06-22T02:50:37;49.42;41.83;57.67;;
63692;Laerm;49838;51.798;10.954;2023-06-22T02:53:05;46.33;38.30;55.90;;
63692;Laerm;49838;51.798;10.954;2023-06-22T02:55:33;46.92;39.85;54.69;;
63692;Laerm;49838;51.798;10.954;2023-06-22T02:58:00;44.77;37.22;53.83;;
63692;Laerm;49838;51.798;10.954;2023-06-22T03:00:32;44.36;35.89;59.49;;
63692;Laerm;49838;51.798;10.954;2023-06-22T03:02:59;43.48;35.79;56.74;;
63692;Laerm;49838;51.798;10.954;2023-06-22T03:05:27;45.16;36.36;64.19;;
63692;Laerm;49838;51.798;10.954;2023-06-22T03:07:54;45.11;37.48;57.46;;
63692;Laerm;49838;51.798;10.954;2023-06-22T03:10:22;44.27;37.66;54.28;;
63692;Laerm;49838;51.798;10.954;2023-06-22T03:12:50;43.81;34.79;56.33;;
63692;Laerm;49838;51.798;10.954;2023-06-22T03:15:17;55.64;38.97;70.57;;
63692;Laerm;49838;51.798;10.954;2023-06-22T03:17:44;56.42;37.64;77.02;;
63692;Laerm;49838;51.798;10.954;2023-06-22T03:20:13;44.09;38.62;52.49;;
63692;Laerm;49838;51.798;10.954;2023-06-22T03:22:41;55.53;39.66;75.33;;
63692;Laerm;49838;51.798;10.954;2023-06-22T03:25:09;48.38;38.12;60.77;;
63692;Laerm;49838;51.798;10.954;2023-06-22T03:27:40;58.19;39.22;74.74;;
63692;Laerm;49838;51.798;10.954;2023-06-22T03:30:10;44.32;36.99;53.51;;
63692;Laerm;49838;51.798;10.954;2023-06-22T03:32:38;53.76;40.32;70.88;;
63692;Laerm;49838;51.798;10.954;2023-06-22T03:35:06;47.81;37.74;62.90;;
63692;Laerm;49838;51.798;10.954;2023-06-22T03:37:33;50.16;39.64;68.08;;
63692;Laerm;49838;51.798;10.954;2023-06-22T03:40:01;51.59;39.34;67.25;;
63692;Laerm;49838;51.798;10.954;2023-06-22T03:42:28;49.79;38.31;63.53;;
63692;Laerm;49838;51.798;10.954;2023-06-22T03:44:57;45.18;40.53;52.77;;
63692;Laerm;49838;51.798;10.954;2023-06-22T03:47:24;55.37;39.26;72.37;;
63692;Laerm;49838;51.798;10.954;2023-06-22T03:49:51;45.92;40.63;54.74;;
63692;Laerm;49838;51.798;10.954;2023-06-22T03:52:21;58.26;41.11;72.97;;
63692;Laerm;49838;51.798;10.954;2023-06-22T03:54:49;56.09;40.87;71.07;;
63692;Laerm;49838;51.798;10.954;2023-06-22T03:57:16;53.26;39.30;73.02;;
63692;Laerm;49838;51.798;10.954;2023-06-22T03:59:43;56.82;39.32;74.35;;
63692;Laerm;49838;51.798;10.954;2023-06-22T04:02:12;51.78;40.47;66.45;;
63692;Laerm;49838;51.798;10.954;2023-06-22T04:04:39;53.15;40.30;66.47;;
63692;Laerm;49838;51.798;10.954;2023-06-22T04:07:06;54.44;41.56;70.42;;
63692;Laerm;49838;51.798;10.954;2023-06-22T04:09:34;49.12;42.45;70.70;;
63692;Laerm;49838;51.798;10.954;2023-06-22T04:12:02;56.11;44.01;73.07;;
63692;Laerm;49838;51.798;10.954;2023-06-22T04:14:29;52.34;39.42;66.11;;
63692;Laerm;49838;51.798;10.954;2023-06-22T04:16:57;51.13;44.94;62.76;;
63692;Laerm;49838;51.798;10.954;2023-06-22T04:19:25;51.91;42.47;65.04;;
63692;Laerm;49838;51.798;10.954;2023-06-22T04:21:53;54.48;43.88;68.44;;
63692;Laerm;49838;51.798;10.954;2023-06-22T04:24:20;55.70;42.80;70.22;;
63692;Laerm;49838;51.798;10.954;2023-06-22T04:26:47;54.28;43.15;68.60;;
63692;Laerm;49838;51.798;10.954;2023-06-22T04:29:15;53.57;42.79;69.15;;
63692;Laerm;49838;51.798;10.954;2023-06-22T04:31:42;57.39;41.22;71.58;;
63692;Laerm;49838;51.798;10.954;2023-06-22T04:34:09;54.88;41.13;70.53;;
63692;Laerm;49838;51.798;10.954;2023-06-22T04:36:40;53.22;40.07;70.64;;
63692;Laerm;49838;51.798;10.954;2023-06-22T04:39:09;56.61;39.46;71.80;;
63692;Laerm;49838;51.798;10.954;2023-06-22T04:41:37;54.58;39.47;68.38;;
63692;Laerm;49838;51.798;10.954;2023-06-22T04:44:15;59.49;41.05;72.25;;
63692;Laerm;49838;51.798;10.954;2023-06-22T04:46:50;50.99;38.97;66.02;;
63692;Laerm;49838;51.798;10.954;2023-06-22T04:49:20;58.07;39.29;72.64;;
63692;Laerm;49838;51.798;10.954;2023-06-22T04:51:49;54.28;38.28;68.08;;
63692;Laerm;49838;51.798;10.954;2023-06-22T04:54:17;55.55;38.21;70.12;;
63692;Laerm;49838;51.798;10.954;2023-06-22T04:56:45;56.88;39.25;73.19;;
63692;Laerm;49838;51.798;10.954;2023-06-22T04:59:12;60.79;38.44;75.48;;
63692;Laerm;49838;51.798;10.954;2023-06-22T05:01:40;59.34;39.09;77.06;;
63692;Laerm;49838;51.798;10.954;2023-06-22T05:04:07;59.08;37.84;77.13;;
63692;Laerm;49838;51.798;10.954;2023-06-22T05:06:34;54.98;38.15;69.53;;
63692;Laerm;49838;51.798;10.954;2023-06-22T05:09:03;58.43;37.59;74.21;;
63692;Laerm;49838;51.798;10.954;2023-06-22T05:11:31;53.61;37.55;68.91;;
63692;Laerm;49838;51.798;10.954;2023-06-22T05:13:58;62.35;39.39;84.20;;
63692;Laerm;49838;51.798;10.954;2023-06-22T05:16:26;61.56;40.46;73.54;;
63692;Laerm;49838;51.798;10.954;2023-06-22T05:18:54;58.59;41.53;72.31;;
63692;Laerm;49838;51.798;10.954;2023-06-22T05:21:23;59.74;43.90;71.76;;
63692;Laerm;49838;51.798;10.954;2023-06-22T05:23:51;60.11;41.31;77.14;;
63692;Laerm;49838;51.798;10.954;2023-06-22T05:26:20;61.94;40.79;79.63;;
63692;Laerm;49838;51.798;10.954;2023-06-22T05:28:48;60.70;43.27;74.80;;
63692;Laerm;49838;51.798;10.954;2023-06-22T05:31:15;57.34;38.64;73.16;;
63692;Laerm;49838;51.798;10.954;2023-06-22T05:33:43;62.97;42.15;77.57;;
63692;Laerm;49838;51.798;10.954;2023-06-22T05:36:11;65.68;40.77;80.21;;
63692;Laerm;49838;51.798;10.954;2023-06-22T05:38:39;61.36;41.61;74.82;;
63692;Laerm;49838;51.798;10.954;2023-06-22T05:41:07;57.84;38.14;70.98;;
63692;Laerm;49838;51.798;10.954;2023-06-22T05:43:36;56.28;39.54;71.08;;
63692;Laerm;49838;51.798;10.954;2023-06-22T05:46:04;53.66;38.96;75.10;;
63692;Laerm;49838;51.798;10.954;2023-06-22T05:48:31;56.45;38.71;73.79;;
63692;Laerm;49838;51.798;10.954;2023-06-22T05:50:59;58.83;37.94;80.38;;
63692;Laerm;49838;51.798;10.954;2023-06-22T05:53:26;56.44;38.52;71.49;;
63692;Laerm;49838;51.798;10.954;2023-06-22T05:55:53;65.09;41.04;88.95;;
63692;Laerm;49838;51.798;10.954;2023-06-22T05:58:21;57.62;40.39;71.52;;
63692;Laerm;49838;51.798;10.954;2023-06-22T06:00:49;57.51;37.42;75.36;;
63692;Laerm;49838;51.798;10.954;2023-06-22T06:03:16;52.93;35.75;70.34;;
63692;Laerm;49838;51.798;10.954;2023-06-22T06:05:44;60.24;38.39;74.31;;
63692;Laerm;49838;51.798;10.954;2023-06-22T06:08:12;59.07;36.65;73.45;;
63692;Laerm;49838;51.798;10.954;2023-06-22T06:10:39;55.26;37.90;69.24;;
63692;Laerm;49838;51.798;10.954;2023-06-22T06:13:06;63.59;36.71;84.99;;
63692;Laerm;49838;51.798;10.954;2023-06-22T06:15:35;54.35;37.74;70.93;;
63692;Laerm;49838;51.798;10.954;2023-06-22T06:18:03;61.96;40.44;76.85;;
63692;Laerm;49838;51.798;10.954;2023-06-22T06:20:32;56.16;38.00;72.94;;
63692;Laerm;49838;51.798;10.954;2023-06-22T06:22:59;51.61;35.87;68.40;;
63692;Laerm;49838;51.798;10.954;2023-06-22T06:25:27;55.41;38.35;70.73;;
63692;Laerm;49838;51.798;10.954;2023-06-22T06:27:55;53.57;38.32;67.80;;
63692;Laerm;49838;51.798;10.954;2023-06-22T06:30:22;58.25;38.27;71.76;;
63692;Laerm;49838;51.798;10.954;2023-06-22T06:32:50;66.07;37.23;89.27;;
63692;Laerm;49838;51.798;10.954;2023-06-22T06:35:19;66.22;37.31;85.45;;
63692;Laerm;49838;51.798;10.954;2023-06-22T06:37:48;55.73;37.31;71.80;;
63692;Laerm;49838;51.798;10.954;2023-06-22T06:40:17;56.95;35.89;73.01;;
63692;Laerm;49838;51.798;10.954;2023-06-22T06:42:45;54.54;37.37;72.14;;
63692;Laerm;49838;51.798;10.954;2023-06-22T06:45:15;59.05;37.31;74.52;;
63692;Laerm;49838;51.798;10.954;2023-06-22T06:47:43;44.89;38.29;56.66;;
63692;Laerm;49838;51.798;10.954;2023-06-22T06:50:11;57.42;40.83;71.66;;
63692;Laerm;49838;51.798;10.954;2023-06-22T06:52:39;57.76;41.07;70.64;;
63692;Laerm;49838;51.798;10.954;2023-06-22T06:55:10;59.03;43.86;72.69;;
63692;Laerm;49838;51.798;10.954;2023-06-22T06:57:38;66.17;40.38;79.98;;
63692;Laerm;49838;51.798;10.954;2023-06-22T07:00:07;66.50;45.64;83.77;;
63692;Laerm;49838;51.798;10.954;2023-06-22T07:02:38;61.63;42.97;76.62;;
63692;Laerm;49838;51.798;10.954;2023-06-22T07:05:06;57.55;35.67;73.13;;
63692;Laerm;49838;51.798;10.954;2023-06-22T07:07:34;56.41;36.58;70.00;;
63692;Laerm;49838;51.798;10.954;2023-06-22T07:10:05;49.97;36.60;63.51;;
63692;Laerm;49838;51.798;10.954;2023-06-22T07:12:32;56.24;35.22;75.18;;
63692;Laerm;49838;51.798;10.954;2023-06-22T07:15:03;61.74;38.78;81.58;;
63692;Laerm;49838;51.798;10.954;2023-06-22T07:17:31;65.31;40.12;86.45;;
63692;Laerm;49838;51.798;10.954;2023-06-22T07:19:59;51.06;37.34;64.80;;
63692;Laerm;49838;51.798;10.954;2023-06-22T07:22:26;59.73;36.65;79.83;;
63692;Laerm;49838;51.798;10.954;2023-06-22T07:24:53;54.34;37.08;72.93;;
63692;Laerm;49838;51.798;10.954;2023-06-22T07:27:22;58.36;36.83;71.22;;
63692;Laerm;49838;51.798;10.954;2023-06-22T07:29:49;55.65;36.51;69.79;;
63692;Laerm;49838;51.798;10.954;2023-06-22T07:32:16;56.19;36.97;70.45;;
63692;Laerm;49838;51.798;10.954;2023-06-22T07:34:44;59.62;37.40;76.77;;
63692;Laerm;49838;51.798;10.954;2023-06-22T07:37:11;56.63;38.74;67.84;;
63692;Laerm;49838;51.798;10.954;2023-06-22T07:39:38;61.24;39.72;86.73;;
63692;Laerm;49838;51.798;10.954;2023-06-22T07:42:06;58.90;35.98;73.95;;
63692;Laerm;49838;51.798;10.954;2023-06-22T07:44:37;57.38;37.58;74.45;;
63692;Laerm;49838;51.798;10.954;2023-06-22T07:47:05;55.20;37.70;72.65;;
63692;Laerm;49838;51.798;10.954;2023-06-22T07:49:32;52.76;37.53;67.92;;
63692;Laerm;49838;51.798;10.954;2023-06-22T07:51:59;59.06;37.24;73.35;;
63692;Laerm;49838;51.798;10.954;2023-06-22T07:54:27;55.78;37.29;71.98;;
63692;Laerm;49838;51.798;10.954;2023-06-22T07:56:54;54.26;37.28;68.29;;
63692;Laerm;49838;51.798;10.954;2023-06-22T07:59:21;54.65;38.10;71.17;;
63692;Laerm;49838;51.798;10.954;2023-06-22T08:01:50;52.14;37.86;68.07;;
63692;Laerm;49838;51.798;10.954;2023-06-22T08:04:17;56.31;39.16;69.51;;
63692;Laerm;49838;51.798;10.954;2023-06-22T08:06:45;56.69;45.65;70.69;;
63692;Laerm;49838;51.798;10.954;2023-06-22T08:09:12;59.21;48.01;70.77;;
63692;Laerm;49838;51.798;10.954;2023-06-22T08:11:39;58.38;48.35;67.54;;
63692;Laerm;49838;51.798;10.954;2023-06-22T08:14:06;58.35;50.76;79.41;;
63692;Laerm;49838;51.798;10.954;2023-06-22T08:16:34;58.04;47.85;68.29;;
63692;Laerm;49838;51.798;10.954;2023-06-22T08:19:02;63.03;44.05;80.76;;
63692;Laerm;49838;51.798;10.954;2023-06-22T08:21:29;60.27;48.41;74.71;;
63692;Laerm;49838;51.798;10.954;2023-06-22T08:23:57;55.61;42.76;69.24;;
63692;Laerm;49838;51.798;10.954;2023-06-22T08:26:24;56.57;44.50;66.94;;
63692;Laerm;49838;51.798;10.954;2023-06-22T08:28:51;59.80;51.27;73.47;;
63692;Laerm;49838;51.798;10.954;2023-06-22T08:31:19;59.38;42.68;71.46;;
63692;Laerm;49838;51.798;10.954;2023-06-22T08:33:46;58.53;39.75;72.89;;
63692;Laerm;49838;51.798;10.954;2023-06-22T08:36:14;59.38;40.20;70.64;;
63692;Laerm;49838;51.798;10.954;2023-06-22T08:38:42;63.64;38.36;82.16;;
63692;Laerm;49838;51.798;10.954;2023-06-22T08:41:10;59.27;36.99;78.04;;
63692;Laerm;49838;51.798;10.954;2023-06-22T08:43:37;53.86;37.89;66.06;;
63692;Laerm;49838;51.798;10.954;2023-06-22T08:46:05;56.98;37.92;71.20;;
63692;Laerm;49838;51.798;10.954;2023-06-22T08:48:32;60.94;39.77;74.70;;
63692;Laerm;49838;51.798;10.954;2023-06-22T08:51:00;50.45;37.95;64.71;;
63692;Laerm;49838;51.798;10.954;2023-06-22T08:53:29;54.46;38.68;67.74;;
63692;Laerm;49838;51.798;10.954;2023-06-22T08:55:56;58.41;39.37;70.17;;
63692;Laerm;49838;51.798;10.954;2023-06-22T08:58:23;57.30;37.26;74.77;;
63692;Laerm;49838;51.798;10.954;2023-06-22T09:00:51;58.84;40.06;71.09;;
63692;Laerm;49838;51.798;10.954;2023-06-22T09:03:18;59.65;49.23;72.52;;
63692;Laerm;49838;51.798;10.954;2023-06-22T09:05:46;57.56;50.09;68.67;;
63692;Laerm;49838;51.798;10.954;2023-06-22T09:08:14;58.14;41.60;67.81;;
63692;Laerm;49838;51.798;10.954;2023-06-22T09:10:42;61.91;49.50;73.09;;
63692;Laerm;49838;51.798;10.954;2023-06-22T09:13:10;57.14;38.30;68.05;;
63692;Laerm;49838;51.798;10.954;2023-06-22T09:15:37;58.60;48.19;70.86;;
63692;Laerm;49838;51.798;10.954;2023-06-22T09:18:04;60.39;50.86;72.86;;
63692;Laerm;49838;51.798;10.954;2023-06-22T09:20:32;57.38;39.53;70.56;;
63692;Laerm;49838;51.798;10.954;2023-06-22T09:22:59;60.25;39.72;78.04;;
63692;Laerm;49838;51.798;10.954;2023-06-22T09:25:26;59.53;39.55;76.26;;
63692;Laerm;49838;51.798;10.954;2023-06-22T09:27:55;57.45;38.92;71.51;;
63692;Laerm;49838;51.798;10.954;2023-06-22T09:30:22;58.14;38.90;71.67;;
63692;Laerm;49838;51.798;10.954;2023-06-22T09:32:49;59.06;41.07;73.46;;
63692;Laerm;49838;51.798;10.954;2023-06-22T09:35:17;59.86;40.71;74.08;;
63692;Laerm;49838;51.798;10.954;2023-06-22T09:37:46;64.06;40.25;80.05;;
63692;Laerm;49838;51.798;10.954;2023-06-22T09:40:13;57.80;40.17;75.66;;
63692;Laerm;49838;51.798;10.954;2023-06-22T09:42:42;57.02;38.14;79.82;;
63692;Laerm;49838;51.798;10.954;2023-06-22T09:45:11;57.04;38.51;71.17;;
63692;Laerm;49838;51.798;10.954;2023-06-22T09:47:38;59.74;38.42;71.10;;
63692;Laerm;49838;51.798;10.954;2023-06-22T09:50:06;56.05;38.53;69.40;;
63692;Laerm;49838;51.798;10.954;2023-06-22T09:52:34;57.79;40.11;73.00;;
63692;Laerm;49838;51.798;10.954;2023-06-22T09:55:02;54.67;37.06;68.37;;
63692;Laerm;49838;51.798;10.954;2023-06-22T09:57:29;46.25;36.46;62.05;;
63692;Laerm;49838;51.798;10.954;2023-06-22T09:59:57;57.41;38.27;71.38;;
63692;Laerm;49838;51.798;10.954;2023-06-22T10:02:26;52.50;39.68;68.56;;
63692;Laerm;49838;51.798;10.954;2023-06-22T10:04:53;56.93;39.16;69.59;;
63692;Laerm;49838;51.798;10.954;2023-06-22T10:07:20;58.04;39.92;68.43;;
63692;Laerm;49838;51.798;10.954;2023-06-22T10:09:48;58.55;40.21;75.32;;
63692;Laerm;49838;51.798;10.954;2023-06-22T10:12:15;57.04;39.24;71.18;;
63692;Laerm;49838;51.798;10.954;2023-06-22T10:14:42;57.01;38.16;70.50;;
63692;Laerm;49838;51.798;10.954;2023-06-22T10:17:09;56.87;39.40;71.16;;
63692;Laerm;49838;51.798;10.954;2023-06-22T10:19:38;54.38;38.75;69.23;;
63692;Laerm;49838;51.798;10.954;2023-06-22T10:22:09;58.44;40.93;71.67;;
63692;Laerm;49838;51.798;10.954;2023-06-22T10:24:40;50.22;38.07;65.83;;
63692;Laerm;49838;51.798;10.954;2023-06-22T10:27:10;52.32;38.87;70.20;;
63692;Laerm;49838;51.798;10.954;2023-06-22T10:29:38;58.85;40.20;72.56;;
63692;Laerm;49838;51.798;10.954;2023-06-22T10:32:06;57.87;40.13;73.39;;
63692;Laerm;49838;51.798;10.954;2023-06-22T10:34:35;56.31;41.92;72.96;;
63692;Laerm;49838;51.798;10.954;2023-06-22T10:37:06;55.59;38.92;72.76;;
63692;Laerm;49838;51.798;10.954;2023-06-22T10:39:33;57.80;38.04;72.36;;
63692;Laerm;49838;51.798;10.954;2023-06-22T10:42:00;63.07;39.25;84.27;;
63692;Laerm;49838;51.798;10.954;2023-06-22T10:44:28;53.71;40.27;69.62;;
63692;Laerm;49838;51.798;10.954;2023-06-22T10:46:55;54.63;39.13;67.48;;
63692;Laerm;49838;51.798;10.954;2023-06-22T10:49:22;55.15;41.00;69.28;;
63692;Laerm;49838;51.798;10.954;2023-06-22T10:51:49;55.33;39.92;67.93;;
63692;Laerm;49838;51.798;10.954;2023-06-22T10:54:21;45.54;38.23;58.24;;
63692;Laerm;49838;51.798;10.954;2023-06-22T10:56:48;57.81;38.69;72.37;;
63692;Laerm;49838;51.798;10.954;2023-06-22T10:59:16;59.80;41.48;74.66;;
63692;Laerm;49838;51.798;10.954;2023-06-22T11:01:43;65.40;42.99;84.55;;
63692;Laerm;49838;51.798;10.954;2023-06-22T11:04:10;56.08;40.11;69.81;;
63692;Laerm;49838;51.798;10.954;2023-06-22T11:06:38;53.28;40.74;67.56;;
63692;Laerm;49838;51.798;10.954;2023-06-22T11:09:05;57.32;40.67;75.77;;
63692;Laerm;49838;51.798;10.954;2023-06-22T11:11:33;55.58;39.91;68.01;;
63692;Laerm;49838;51.798;10.954;2023-06-22T11:14:01;54.87;39.79;70.66;;
63692;Laerm;49838;51.798;10.954;2023-06-22T11:16:28;47.71;40.52;60.70;;
63692;Laerm;49838;51.798;10.954;2023-06-22T11:18:55;52.30;40.12;72.24;;
63692;Laerm;49838;51.798;10.954;2023-06-22T11:21:23;54.78;38.59;69.31;;
63692;Laerm;49838;51.798;10.954;2023-06-22T11:23:50;43.98;38.63;60.19;;
63692;Laerm;49838;51.798;10.954;2023-06-22T11:26:17;56.07;39.74;73.95;;
63692;Laerm;49838;51.798;10.954;2023-06-22T11:28:46;60.74;41.47;74.68;;
63692;Laerm;49838;51.798;10.954;2023-06-22T11:31:13;54.00;41.35;67.31;;
63692;Laerm;49838;51.798;10.954;2023-06-22T11:33:41;60.81;39.86;77.19;;
63692;Laerm;49838;51.798;10.954;2023-06-22T11:36:08;56.43;39.16;71.75;;
63692;Laerm;49838;51.798;10.954;2023-06-22T11:38:37;53.91;39.69;69.22;;
63692;Laerm;49838;51.798;10.954;2023-06-22T11:41:05;55.15;39.01;69.10;;
63692;Laerm;49838;51.798;10.954;2023-06-22T11:43:32;60.22;39.65;76.74;;
63692;Laerm;49838;51.798;10.954;2023-06-22T11:46:01;50.33;37.93;67.04;;
63692;Laerm;49838;51.798;10.954;2023-06-22T11:48:29;53.36;38.92;69.28;;
63692;Laerm;49838;51.798;10.954;2023-06-22T11:50:57;57.25;40.01;79.79;;
63692;Laerm;49838;51.798;10.954;2023-06-22T11:53:26;61.30;39.08;81.34;;
63692;Laerm;49838;51.798;10.954;2023-06-22T11:55:54;57.94;38.96;69.87;;
63692;Laerm;49838;51.798;10.954;2023-06-22T11:58:21;55.56;39.07;73.30;;
63692;Laerm;49838;51.798;10.954;2023-06-22T12:00:49;58.95;42.51;74.67;;
63692;Laerm;49838;51.798;10.954;2023-06-22T12:03:17;59.82;42.02;70.99;;
63692;Laerm;49838;51.798;10.954;2023-06-22T12:05:45;59.25;41.17;72.38;;
63692;Laerm;49838;51.798;10.954;2023-06-22T12:08:12;53.97;41.11;67.88;;
63692;Laerm;49838;51.798;10.954;2023-06-22T12:10:40;53.24;41.56;73.97;;
63692;Laerm;49838;51.798;10.954;2023-06-22T12:13:07;54.44;39.97;69.37;;
63692;Laerm;49838;51.798;10.954;2023-06-22T12:15:35;67.33;43.15;84.24;;
63692;Laerm;49838;51.798;10.954;2023-06-22T12:18:02;62.83;41.53;81.53;;
63692;Laerm;49838;51.798;10.954;2023-06-22T12:20:31;58.66;42.21;76.54;;
63692;Laerm;49838;51.798;10.954;2023-06-22T12:22:58;56.08;39.32;73.83;;
63692;Laerm;49838;51.798;10.954;2023-06-22T12:25:25;53.91;38.20;68.65;;
63692;Laerm;49838;51.798;10.954;2023-06-22T12:27:53;53.89;40.19;69.60;;
63692;Laerm;49838;51.798;10.954;2023-06-22T12:30:21;54.83;39.36;70.50;;
63692;Laerm;49838;51.798;10.954;2023-06-22T12:32:48;63.00;40.73;81.91;;
63692;Laerm;49838;51.798;10.954;2023-06-22T12:35:17;59.88;44.54;71.66;;
63692;Laerm;49838;51.798;10.954;2023-06-22T12:37:46;58.82;40.09;70.89;;
63692;Laerm;49838;51.798;10.954;2023-06-22T12:40:13;56.07;40.50;69.30;;
63692;Laerm;49838;51.798;10.954;2023-06-22T12:42:40;57.32;41.26;74.63;;
63692;Laerm;49838;51.798;10.954;2023-06-22T12:45:09;56.38;42.05;69.87;;
63692;Laerm;49838;51.798;10.954;2023-06-22T12:47:36;64.93;43.23;84.59;;
63692;Laerm;49838;51.798;10.954;2023-06-22T12:50:05;57.25;41.72;73.95;;
63692;Laerm;49838;51.798;10.954;2023-06-22T12:52:32;60.11;43.68;77.12;;
63692;Laerm;49838;51.798;10.954;2023-06-22T12:55:01;58.78;41.15;73.33;;
63692;Laerm;49838;51.798;10.954;2023-06-22T12:57:28;56.69;40.63;70.23;;
63692;Laerm;49838;51.798;10.954;2023-06-22T12:59:55;55.82;39.71;71.00;;
63692;Laerm;49838;51.798;10.954;2023-06-22T13:02:24;55.31;39.00;67.24;;
63692;Laerm;49838;51.798;10.954;2023-06-22T13:04:51;55.97;39.80;72.33;;
63692;Laerm;49838;51.798;10.954;2023-06-22T13:07:19;58.46;39.08;77.33;;
63692;Laerm;49838;51.798;10.954;2023-06-22T13:09:46;60.35;41.27;74.79;;
63692;Laerm;49838;51.798;10.954;2023-06-22T13:12:19;63.63;41.65;79.64;;
63692;Laerm;49838;51.798;10.954;2023-06-22T13:14:47;57.83;41.57;70.21;;
63692;Laerm;49838;51.798;10.954;2023-06-22T13:17:14;64.00;38.86;82.78;;
63692;Laerm;49838;51.798;10.954;2023-06-22T13:19:42;62.01;45.81;72.01;;
63692;Laerm;49838;51.798;10.954;2023-06-22T13:22:26;62.48;39.10;77.78;;
63692;Laerm;49838;51.798;10.954;2023-06-22T13:24:55;58.74;43.43;71.31;;
63692;Laerm;49838;51.798;10.954;2023-06-22T13:27:24;51.93;41.83;65.34;;
63692;Laerm;49838;51.798;10.954;2023-06-22T13:29:52;59.75;43.10;74.14;;
63692;Laerm;49838;51.798;10.954;2023-06-22T13:32:20;61.91;41.10;79.03;;
63692;Laerm;49838;51.798;10.954;2023-06-22T13:34:47;59.50;44.07;71.96;;
63692;Laerm;49838;51.798;10.954;2023-06-22T13:37:15;57.54;42.32;76.91;;